Time;durP1;ratioP1;P1;durP2;ratioP2;P2;SDS_P1;SDS_P2;PMS_P1;PMS_P2;Temp;Humidity;BMP_temperature;BMP_pressure;BME280_temperature;BME280_humidity;BME280_pressure;Samples;Min_cycle;Max_cycle;Signal;HPM_P1;HPM_P2
2022/08/13 00:01:26;;;;;;;;;;;;;;;24.84;37.94;99380.94;4462047;32;34094;-76
2022/08/13 00:04:01;;;;;;;;;;;;;;;24.91;38.12;99385.66;4462426;32;32991;-76
2022/08/13 00:09:22;;;;;;;;;;;;;;;24.52;38.84;99378.94;4436528;32;34144;-76
2022/08/13 00:14:59;;;;;;;;;;;;;;;24.68;39.33;99381.28;4469407;32;33155;-77
2022/08/13 00:17:33;;;;;;;;;;;;;;;24.60;39.52;99373.91;4474387;32;33971;-75
2022/08/13 00:20:22;;;;;;;;;;;;;;;24.90;39.07;99372.50;4463862;32;33609;-77
2022/08/13 00:22:55;;;;;;;;;;;;;;;24.88;39.63;99367.31;4461833;32;33134;-76
2022/08/13 00:25:29;;;;;;;;;;;;;;;24.99;39.59;99370.97;4461975;32;32908;-76
2022/08/13 00:28:10;;;;;;;;;;;;;;;25.10;39.60;99360.31;4462339;32;33694;-77
2022/08/13 00:30:39;;;;;;;;;;;;;;;25.13;39.90;99362.75;4462211;32;33898;-77
2022/08/13 00:33:12;;;;;;;;;;;;;;;25.11;39.85;99360.22;4471466;32;34338;-76
2022/08/13 00:35:42;;;;;;;;;;;;;;;25.13;39.76;99355.63;4476685;32;34062;-76
2022/08/13 00:38:13;;;;;;;;;;;;;;;25.08;39.34;99351.63;4477854;32;34605;-76
2022/08/13 00:40:43;;;;;;;;;;;;;;;24.80;39.86;99347.66;4477769;32;34627;-77
2022/08/13 00:43:24;;;;;;;;;;;;;;;24.77;40.08;99347.91;4477227;32;36130;-76
2022/08/13 00:45:54;;;;;;;;;;;;;;;24.66;40.45;99349.56;4473448;32;34423;-77
2022/08/13 00:51:20;;;;;;;;;;;;;;;25.09;39.88;99343.56;4461697;32;33683;-78
2022/08/13 00:54:09;;;;;;;;;;;;;;;25.05;40.23;99346.56;4461360;32;34149;-76
2022/08/13 00:56:38;;;;;;;;;;;;;;;25.06;40.13;99343.81;4462538;32;32305;-76
2022/08/13 00:59:11;;;;;;;;;;;;;;;24.91;40.89;99345.87;4461652;32;34359;-77
2022/08/13 01:01:41;;;;;;;;;;;;;;;25.06;40.70;99343.81;4472877;32;33903;-77
2022/08/13 01:04:20;;;;;;;;;;;;;;;25.06;41.06;99338.50;4482146;32;33694;-76
2022/08/13 01:06:55;;;;;;;;;;;;;;;24.86;41.41;99336.56;4477518;32;32839;-77
2022/08/13 01:09:29;;;;;;;;;;;;;;;24.77;41.55;99342.59;4477266;32;33852;-76
2022/08/13 01:12:19;;;;;;;;;;;;;;;24.86;41.38;99340.09;4477315;32;33803;-76
2022/08/13 01:14:53;;;;;;;;;;;;;;;24.92;41.56;99336.09;4475366;32;34091;-75
2022/08/13 01:17:22;;;;;;;;;;;;;;;24.84;41.73;99330.53;4461165;32;33440;-75
2022/08/13 01:19:58;;;;;;;;;;;;;;;25.16;41.22;99327.16;4465731;32;34142;-75
2022/08/13 01:22:32;;;;;;;;;;;;;;;25.17;41.28;99321.75;4460642;32;34476;-77
2022/08/13 01:25:05;;;;;;;;;;;;;;;25.07;41.26;99321.59;4459806;32;34390;-77
2022/08/13 01:27:39;;;;;;;;;;;;;;;24.74;41.81;99332.22;4460971;32;33708;-77
2022/08/13 01:30:11;;;;;;;;;;;;;;;24.98;41.68;99324.97;4462668;32;33512;-75
2022/08/13 01:32:43;;;;;;;;;;;;;;;25.17;41.05;99319.09;4463751;32;34988;-76
2022/08/13 01:35:22;;;;;;;;;;;;;;;25.04;41.50;99323.66;4468066;32;33840;-76
2022/08/13 01:37:54;;;;;;;;;;;;;;;25.24;41.21;99320.28;4464425;32;34846;-76
2022/08/13 01:40:32;;;;;;;;;;;;;;;24.99;42.04;99316.06;4463075;32;33766;-75
2022/08/13 01:43:02;;;;;;;;;;;;;;;24.95;42.05;99308.47;4462789;32;34995;-76
2022/08/13 01:45:50;;;;;;;;;;;;;;;25.21;41.38;99315.22;4472107;32;34194;-76
2022/08/13 01:51:28;;;;;;;;;;;;;;;24.97;42.15;99317.16;4479175;32;33824;-76
2022/08/13 01:54:12;;;;;;;;;;;;;;;24.83;42.34;99321.72;4479191;32;33690;-75
2022/08/13 01:57:01;;;;;;;;;;;;;;;25.00;42.02;99315.09;4479727;32;34920;-77
2022/08/13 01:59:34;;;;;;;;;;;;;;;25.00;41.96;99308.94;4483810;32;32463;-75
2022/08/13 02:02:23;;;;;;;;;;;;;;;25.10;41.74;99318.72;4465234;32;33911;-75
2022/08/13 02:05:02;;;;;;;;;;;;;;;25.01;42.03;99310.62;4474153;32;34677;-77
2022/08/13 02:07:32;;;;;;;;;;;;;;;24.94;42.02;99310.28;4478322;32;34222;-76
2022/08/13 02:10:22;;;;;;;;;;;;;;;25.05;42.01;99307.59;4478930;32;34685;-76
2022/08/13 02:12:52;;;;;;;;;;;;;;;24.90;41.93;99308.81;4478447;32;34499;-76
2022/08/13 02:15:22;;;;;;;;;;;;;;;25.17;41.29;99305.81;4482881;32;34308;-76
2022/08/13 02:18:17;;;;;;;;;;;;;;;25.22;41.29;99305.44;4479062;32;34599;-77
2022/08/13 02:20:48;;;;;;;;;;;;;;;25.20;41.35;99297.63;4478808;32;33769;-77
2022/08/13 02:23:19;;;;;;;;;;;;;;;25.20;41.29;99308.25;4479216;32;33949;-76
2022/08/13 02:26:10;;;;;;;;;;;;;;;25.26;41.21;99304.25;4473075;32;33939;-76
2022/08/13 02:28:40;;;;;;;;;;;;;;;25.11;41.43;99308.94;4463372;32;34778;-75
2022/08/13 02:31:10;;;;;;;;;;;;;;;25.07;41.71;99307.50;4465334;32;33138;-76
2022/08/13 02:33:58;;;;;;;;;;;;;;;25.19;41.30;99305.72;4468078;32;34239;-76
2022/08/13 02:36:30;;;;;;;;;;;;;;;25.22;41.26;99303.62;4463121;32;33891;-75
2022/08/13 02:38:59;;;;;;;;;;;;;;;24.94;41.96;99302.31;4461591;32;33821;-76
2022/08/13 02:41:43;;;;;;;;;;;;;;;24.90;42.30;99311.47;4463083;32;32349;-75
2022/08/13 02:44:20;;;;;;;;;;;;;;;24.82;42.83;99311.25;4462921;32;33607;-75
2022/08/13 02:47:04;;;;;;;;;;;;;;;24.86;42.40;99304.72;4467017;32;33979;-76
2022/08/13 02:49:35;;;;;;;;;;;;;;;24.62;43.30;99308.34;4481557;32;34895;-75
2022/08/13 02:52:14;;;;;;;;;;;;;;;24.71;42.96;99306.78;4483897;32;33266;-78
2022/08/13 02:54:44;;;;;;;;;;;;;;;24.77;42.88;99303.66;4478288;32;34178;-77
2022/08/13 02:57:23;;;;;;;;;;;;;;;24.56;43.49;99300.00;4478226;32;34800;-76
2022/08/13 02:59:52;;;;;;;;;;;;;;;24.55;43.60;99300.97;4478298;32;34097;-76
2022/08/13 03:02:31;;;;;;;;;;;;;;;24.62;43.58;99297.75;4471149;32;32846;-77
2022/08/13 03:05:01;;;;;;;;;;;;;;;24.51;44.00;99300.37;4463068;32;34603;-76
2022/08/13 03:07:33;;;;;;;;;;;;;;;24.79;42.98;99304.38;4468134;32;33756;-78
2022/08/13 03:10:21;;;;;;;;;;;;;;;24.53;43.74;99305.56;4462375;32;34208;-76
2022/08/13 03:13:15;;;;;;;;;;;;;;;24.42;44.12;99303.69;4462819;32;33607;-76
2022/08/13 03:15:50;;;;;;;;;;;;;;;24.18;44.78;99299.28;4472843;32;33511;-76
2022/08/13 03:18:30;;;;;;;;;;;;;;;24.56;43.71;99295.53;4478182;32;33713;-76
2022/08/13 03:21:19;;;;;;;;;;;;;;;24.39;44.08;99295.97;4478421;32;34760;-75
2022/08/13 03:24:08;;;;;;;;;;;;;;;24.45;44.15;99298.13;4468769;32;33305;-77
2022/08/13 03:26:38;;;;;;;;;;;;;;;24.45;44.25;99292.84;4462012;32;33444;-76
2022/08/13 03:29:09;;;;;;;;;;;;;;;24.32;44.64;99286.81;4469088;32;33693;-77
2022/08/13 03:31:37;;;;;;;;;;;;;;;24.43;44.13;99292.13;4468270;32;34679;-76
2022/08/13 03:34:22;;;;;;;;;;;;;;;24.00;45.07;99290.09;4463200;32;34037;-77
2022/08/13 03:36:53;;;;;;;;;;;;;;;24.08;45.02;99279.75;4477551;32;33612;-76
2022/08/13 03:39:26;;;;;;;;;;;;;;;24.21;44.74;99285.81;4478214;32;34971;-76
2022/08/13 03:41:55;;;;;;;;;;;;;;;24.38;44.45;99278.38;4482672;32;34091;-76
2022/08/13 03:44:30;;;;;;;;;;;;;;;24.31;44.71;99287.75;4481437;32;32776;-76
2022/08/13 03:47:03;;;;;;;;;;;;;;;24.19;44.65;99284.25;4472385;32;34656;-76
2022/08/13 03:49:52;;;;;;;;;;;;;;;24.05;45.03;99282.66;4462521;32;33543;-76
2022/08/13 03:52:20;;;;;;;;;;;;;;;24.25;44.74;99281.97;4461686;32;34791;-76
2022/08/13 03:55:01;;;;;;;;;;;;;;;24.02;45.43;99273.12;4462380;32;33605;-76
2022/08/13 03:57:30;;;;;;;;;;;;;;;24.02;45.38;99280.22;4462843;32;34659;-76
2022/08/13 04:00:22;;;;;;;;;;;;;;;24.08;45.51;99281.56;4467214;32;34005;-77
2022/08/13 04:02:53;;;;;;;;;;;;;;;23.97;45.78;99277.06;4463075;32;34487;-76
2022/08/13 04:05:26;;;;;;;;;;;;;;;24.18;45.30;99280.72;4461998;32;32956;-77
2022/08/13 04:08:15;;;;;;;;;;;;;;;24.20;45.27;99278.81;4434988;32;856815;-76
2022/08/13 04:10:43;;;;;;;;;;;;;;;24.20;45.09;99280.62;4462029;32;34311;-76
2022/08/13 04:13:20;;;;;;;;;;;;;;;24.29;45.15;99274.63;4462029;32;34506;-77
2022/08/13 04:16:10;;;;;;;;;;;;;;;24.25;45.27;99276.66;4474927;32;33348;-76
2022/08/13 04:18:39;;;;;;;;;;;;;;;24.34;45.52;99277.78;4482104;32;33653;-76
2022/08/13 04:21:14;;;;;;;;;;;;;;;24.39;45.17;99277.41;4478164;32;33534;-76
2022/08/13 04:23:52;;;;;;;;;;;;;;;24.37;45.56;99276.69;4477550;32;34311;-76
2022/08/13 04:26:24;;;;;;;;;;;;;;;24.41;46.04;99272.84;4477513;32;33165;-76
2022/08/13 04:29:02;;;;;;;;;;;;;;;24.51;46.29;99271.19;4477203;32;34594;-77
2022/08/13 04:31:32;;;;;;;;;;;;;;;24.43;46.65;99270.94;4477936;32;34433;-75
2022/08/13 04:34:17;;;;;;;;;;;;;;;24.54;46.63;99272.75;4477981;32;33928;-76
2022/08/13 04:37:07;;;;;;;;;;;;;;;24.44;47.13;99269.94;4470566;32;33963;-77
2022/08/13 04:39:40;;;;;;;;;;;;;;;24.48;47.46;99274.09;4476634;32;33830;-77
2022/08/13 04:42:28;;;;;;;;;;;;;;;24.33;47.89;99272.56;4478005;32;34342;-76
2022/08/13 04:45:16;;;;;;;;;;;;;;;24.38;48.18;99270.41;4468986;32;34578;-77
2022/08/13 04:47:45;;;;;;;;;;;;;;;24.59;47.61;99258.16;4462391;32;34121;-78
2022/08/13 04:50:18;;;;;;;;;;;;;;;24.66;46.80;99251.41;4461511;32;33983;-76
2022/08/13 04:52:47;;;;;;;;;;;;;;;24.66;46.48;99258.53;4461132;32;34085;-76
2022/08/13 04:55:18;;;;;;;;;;;;;;;24.62;46.33;99257.94;4466058;32;34608;-76
2022/08/13 04:57:48;;;;;;;;;;;;;;;24.38;46.25;99271.28;4461437;32;33711;-78
2022/08/13 05:00:32;;;;;;;;;;;;;;;24.72;45.77;99262.50;4461524;32;34579;-77
2022/08/13 05:03:12;;;;;;;;;;;;;;;24.67;45.14;99263.75;4462293;32;34193;-77
2022/08/13 05:05:41;;;;;;;;;;;;;;;24.63;45.19;99264.94;4465288;32;33942;-76
2022/08/13 05:08:11;;;;;;;;;;;;;;;24.69;45.71;99268.91;4478938;32;33889;-76
2022/08/13 05:10:40;;;;;;;;;;;;;;;24.90;45.33;99266.38;4483752;32;34073;-76
2022/08/13 05:13:21;;;;;;;;;;;;;;;24.94;45.42;99270.47;4478774;32;33585;-77
2022/08/13 05:15:52;;;;;;;;;;;;;;;24.89;45.83;99267.34;4464971;32;33842;-76
2022/08/13 05:18:30;;;;;;;;;;;;;;;25.10;44.91;99268.28;4463218;32;33275;-78
2022/08/13 05:21:01;;;;;;;;;;;;;;;25.37;43.81;99269.72;4463831;32;33759;-77
2022/08/13 05:23:34;;;;;;;;;;;;;;;25.80;43.10;99273.28;4467931;32;34164;-76
2022/08/13 05:26:22;;;;;;;;;;;;;;;25.93;42.64;99272.19;4468484;32;34175;-78
2022/08/13 05:29:11;;;;;;;;;;;;;;;26.31;42.01;99267.25;4465657;32;33433;-78
2022/08/13 05:31:38;;;;;;;;;;;;;;;26.63;41.19;99266.31;4462738;32;33955;-77
2022/08/13 05:34:28;;;;;;;;;;;;;;;26.63;41.37;99268.97;4463463;32;34796;-78
2022/08/13 05:36:58;;;;;;;;;;;;;;;27.33;39.61;99272.59;4463630;32;34612;-77
2022/08/13 05:39:47;;;;;;;;;;;;;;;27.39;39.79;99280.06;4461985;32;31388;-79
2022/08/13 05:42:19;;;;;;;;;;;;;;;27.10;39.60;99280.78;4463884;32;33078;-77
2022/08/13 05:44:56;;;;;;;;;;;;;;;27.27;39.23;99273.16;4475118;32;34371;-77
2022/08/13 05:47:26;;;;;;;;;;;;;;;27.34;39.44;99271.63;4467918;32;33614;-76
2022/08/13 05:49:57;;;;;;;;;;;;;;;27.46;38.98;99262.53;4464024;32;33474;-76
2022/08/13 05:52:32;;;;;;;;;;;;;;;27.43;38.52;99266.31;4463279;32;34621;-76
2022/08/13 05:55:13;;;;;;;;;;;;;;;27.14;38.82;99266.25;4463088;32;35077;-77
2022/08/13 05:58:01;;;;;;;;;;;;;;;27.33;39.04;99264.59;4463417;32;34830;-76
2022/08/13 06:03:37;;;;;;;;;;;;;;;27.22;39.32;99268.25;4463663;32;34099;-75
2022/08/13 06:06:28;;;;;;;;;;;;;;;26.95;39.60;99276.84;4467844;32;33968;-78
2022/08/13 06:09:03;;;;;;;;;;;;;;;27.16;39.08;99279.41;4478076;32;33393;-76
2022/08/13 06:11:39;;;;;;;;;;;;;;;27.08;39.07;99272.09;4477130;32;32961;-77
2022/08/13 06:14:30;;;;;;;;;;;;;;;26.58;39.79;99261.44;4468797;32;34184;-78
2022/08/13 06:17:00;;;;;;;;;;;;;;;26.70;39.92;99265.69;4472659;32;34792;-76
2022/08/13 06:19:32;;;;;;;;;;;;;;;26.51;40.09;99269.06;4469056;32;34347;-76
2022/08/13 06:22:04;;;;;;;;;;;;;;;26.44;40.31;99261.75;4474680;32;34187;-76
2022/08/13 06:24:34;;;;;;;;;;;;;;;26.50;40.28;99267.34;4472406;32;34290;-75
2022/08/13 06:27:19;;;;;;;;;;;;;;;26.97;39.50;99269.56;4474778;32;34376;-76
2022/08/13 06:30:10;;;;;;;;;;;;;;;26.38;40.71;99273.72;4468811;32;33929;-77
2022/08/13 06:32:40;;;;;;;;;;;;;;;26.76;40.18;99275.78;4472678;32;32509;-78
2022/08/13 06:35:28;;;;;;;;;;;;;;;27.06;39.31;99282.03;4468854;32;34644;-77
2022/08/13 06:38:18;;;;;;;;;;;;;;;26.90;39.57;99292.37;4468691;32;35416;-77
2022/08/13 06:40:49;;;;;;;;;;;;;;;26.94;40.10;99299.09;4464642;32;34791;-77
2022/08/13 06:43:21;;;;;;;;;;;;;;;27.05;40.27;99306.16;4467527;32;32663;-78
2022/08/13 06:45:50;;;;;;;;;;;;;;;27.17;40.15;99313.88;4463531;32;34407;-76
2022/08/13 06:48:22;;;;;;;;;;;;;;;26.85;39.64;99318.53;4471171;32;33636;-77
2022/08/13 06:51:04;;;;;;;;;;;;;;;26.92;39.41;99301.91;4468733;32;34798;-77
2022/08/13 06:53:35;;;;;;;;;;;;;;;26.44;40.41;99288.34;4468908;32;32626;-77
2022/08/13 06:56:26;;;;;;;;;;;;;;;26.72;39.98;99282.31;4468551;32;34168;-77
2022/08/13 06:59:03;;;;;;;;;;;;;;;26.85;39.65;99290.09;4473490;32;34818;-76
2022/08/13 07:01:46;;;;;;;;;;;;;;;27.11;38.72;99300.25;4473586;32;34967;-77
2022/08/13 07:04:34;;;;;;;;;;;;;;;27.18;39.61;99304.94;4468358;32;33740;-79
2022/08/13 07:07:05;;;;;;;;;;;;;;;26.66;40.62;99300.66;4470041;32;33949;-78
2022/08/13 07:09:35;;;;;;;;;;;;;;;27.07;38.98;99307.69;4468256;32;34829;-77
2022/08/13 07:12:12;;;;;;;;;;;;;;;26.88;39.76;99297.81;4470830;32;33905;-77
2022/08/13 07:14:44;;;;;;;;;;;;;;;26.74;40.12;99296.34;4468950;32;32438;-78
2022/08/13 07:17:15;;;;;;;;;;;;;;;26.76;40.31;99297.06;4473245;32;32993;-77
2022/08/13 07:19:43;;;;;;;;;;;;;;;26.69;40.24;99295.91;4476961;32;34021;-77
2022/08/13 07:22:33;;;;;;;;;;;;;;;26.97;39.50;99296.19;4478796;32;33850;-77
2022/08/13 07:25:23;;;;;;;;;;;;;;;27.08;39.38;99287.22;4477980;32;33487;-78
2022/08/13 07:28:12;;;;;;;;;;;;;;;26.84;39.73;99287.56;4477536;32;34734;-78
2022/08/13 07:31:05;;;;;;;;;;;;;;;27.16;38.91;99290.03;4475384;32;34999;-78
2022/08/13 07:33:39;;;;;;;;;;;;;;;27.31;38.82;99295.88;4462395;32;35333;-76
2022/08/13 07:36:24;;;;;;;;;;;;;;;27.32;39.95;99295.72;4463375;32;33055;-77
2022/08/13 07:38:53;;;;;;;;;;;;;;;27.42;38.87;99293.97;4475821;32;34194;-77
2022/08/13 07:41:23;;;;;;;;;;;;;;;27.42;38.23;99298.41;4478022;32;33799;-77
2022/08/13 07:43:54;;;;;;;;;;;;;;;27.53;38.11;99292.97;4478265;32;34111;-78
2022/08/13 07:46:42;;;;;;;;;;;;;;;27.55;38.52;99293.69;4476997;32;33534;-78
2022/08/13 07:49:25;;;;;;;;;;;;;;;27.68;38.59;99296.06;4468689;32;33621;-79
2022/08/13 07:52:13;;;;;;;;;;;;;;;27.69;38.42;99291.56;4469881;32;34353;-77
2022/08/13 07:54:45;;;;;;;;;;;;;;;27.71;38.54;99289.63;4469670;32;33918;-77
2022/08/13 07:57:20;;;;;;;;;;;;;;;27.76;38.20;99277.53;4453116;32;31594;-76
2022/08/13 08:00:06;;;;;;;;;;;;;;;27.93;37.41;99283.19;4467370;32;34424;-77
2022/08/13 08:02:54;;;;;;;;;;;;;;;27.69;38.18;99281.78;4463546;32;35085;-77
2022/08/13 08:05:24;;;;;;;;;;;;;;;27.78;38.14;99280.91;4462746;32;34244;-77
2022/08/13 08:07:53;;;;;;;;;;;;;;;28.14;37.76;99280.38;4467633;32;33018;-77
2022/08/13 08:10:36;;;;;;;;;;;;;;;28.00;37.73;99285.16;4466277;32;33640;-77
2022/08/13 08:13:08;;;;;;;;;;;;;;;28.38;37.11;99282.56;4465337;32;34347;-77
2022/08/13 08:15:37;;;;;;;;;;;;;;;28.47;36.73;99277.25;4466538;32;34812;-77
2022/08/13 08:18:26;;;;;;;;;;;;;;;27.60;37.93;99271.94;4463198;32;33837;-77
2022/08/13 08:21:05;;;;;;;;;;;;;;;28.11;37.31;99276.16;4462539;32;33848;-77
2022/08/13 08:23:56;;;;;;;;;;;;;;;28.43;37.14;99267.81;4462859;32;34324;-78
2022/08/13 08:26:26;;;;;;;;;;;;;;;27.92;37.37;99276.19;4461760;32;33909;-79
2022/08/13 08:28:59;;;;;;;;;;;;;;;28.47;36.20;99279.06;4462292;32;33028;-78
2022/08/13 08:31:27;;;;;;;;;;;;;;;28.46;36.01;99274.72;4466534;32;34164;-77
2022/08/13 08:34:16;;;;;;;;;;;;;;;28.60;35.68;99276.06;4466783;32;33732;-77
2022/08/13 08:36:45;;;;;;;;;;;;;;;28.47;36.66;99265.75;4463115;32;34338;-79
2022/08/13 08:45:00;;;;;;;;;;;;;;;28.62;37.49;99269.59;4479706;32;33823;-79
2022/08/13 08:47:29;;;;;;;;;;;;;;;28.70;36.56;99252.84;4474895;32;34597;-78
2022/08/13 08:50:18;;;;;;;;;;;;;;;29.01;36.93;99252.56;4469754;32;33462;-77
2022/08/13 08:56:03;;;;;;;;;;;;;;;29.22;35.20;99250.50;4484169;32;34716;-77
2022/08/13 08:58:35;;;;;;;;;;;;;;;29.49;34.10;99244.28;4479608;32;33086;-78
2022/08/13 09:01:10;;;;;;;;;;;;;;;29.48;34.00;99247.09;4479467;32;34709;-76
2022/08/13 09:03:42;;;;;;;;;;;;;;;29.53;34.49;99248.31;4479095;32;34279;-77
2022/08/13 09:06:26;;;;;;;;;;;;;;;28.88;34.67;99243.09;4470871;32;34574;-77
2022/08/13 09:09:14;;;;;;;;;;;;;;;29.16;34.24;99244.91;4472024;32;32657;-78
2022/08/13 09:11:46;;;;;;;;;;;;;;;29.43;34.25;99244.03;4469820;32;33277;-77
2022/08/13 09:14:22;;;;;;;;;;;;;;;29.62;34.35;99241.19;4475308;32;33868;-77
2022/08/13 09:16:52;;;;;;;;;;;;;;;29.92;34.60;99240.00;4470374;32;34120;-78
2022/08/13 09:19:20;;;;;;;;;;;;;;;30.10;34.25;99233.78;4470032;32;35008;-77
2022/08/13 09:22:00;;;;;;;;;;;;;;;29.92;34.68;99241.84;4468615;32;33627;-77
2022/08/13 09:24:29;;;;;;;;;;;;;;;30.14;34.12;99240.50;4468384;32;34612;-78
2022/08/13 09:26:59;;;;;;;;;;;;;;;30.35;33.98;99235.66;4475601;32;34352;-77
2022/08/13 09:29:28;;;;;;;;;;;;;;;30.58;34.25;99232.41;4479505;32;34067;-77
2022/08/13 09:32:05;;;;;;;;;;;;;;;30.51;33.69;99220.66;4475962;32;33642;-78
2022/08/13 09:34:39;;;;;;;;;;;;;;;30.64;34.25;99221.06;4464524;32;33080;-78
2022/08/13 09:37:08;;;;;;;;;;;;;;;30.73;33.38;99229.97;4468846;32;34396;-77
2022/08/13 09:39:40;;;;;;;;;;;;;;;30.23;32.96;99215.47;4469388;32;36138;-77
2022/08/13 09:42:16;;;;;;;;;;;;;;;30.48;33.11;99218.31;4473168;32;33024;-77
2022/08/13 09:44:53;;;;;;;;;;;;;;;30.39;32.89;99214.75;4475400;32;34861;-77
2022/08/13 09:47:23;;;;;;;;;;;;;;;30.63;32.04;99217.53;4466634;32;34485;-77
2022/08/13 09:50:11;;;;;;;;;;;;;;;30.22;33.66;99212.94;4463018;32;33801;-77
2022/08/13 09:52:41;;;;;;;;;;;;;;;30.11;33.71;99204.19;4463891;32;33502;-78
2022/08/13 09:55:11;;;;;;;;;;;;;;;30.14;34.44;99209.22;4468047;32;34592;-77
2022/08/13 09:58:00;;;;;;;;;;;;;;;30.22;34.34;99204.91;4467845;32;33991;-76
2022/08/13 10:00:31;;;;;;;;;;;;;;;30.53;33.93;99198.09;4467249;32;33222;-76
2022/08/13 10:03:03;;;;;;;;;;;;;;;30.59;32.58;99204.62;4469891;32;32989;-78
2022/08/13 10:05:34;;;;;;;;;;;;;;;30.47;32.15;99192.53;4471642;32;31877;-77
2022/08/13 10:08:07;;;;;;;;;;;;;;;30.30;32.33;99210.34;4474214;32;34385;-77
2022/08/13 10:10:35;;;;;;;;;;;;;;;29.66;33.44;99207.87;4478120;32;34432;-78
2022/08/13 10:13:04;;;;;;;;;;;;;;;29.89;33.32;99199.34;4483163;32;33120;-77
2022/08/13 10:15:34;;;;;;;;;;;;;;;30.34;33.13;99196.47;4478739;32;34633;-78
2022/08/13 10:18:05;;;;;;;;;;;;;;;30.46;32.81;99201.56;4478778;32;34529;-77
2022/08/13 10:20:39;;;;;;;;;;;;;;;30.53;31.96;99203.44;4474186;32;34146;-77
2022/08/13 10:23:10;;;;;;;;;;;;;;;29.75;32.71;99198.09;4474258;32;33661;-77
2022/08/13 10:25:39;;;;;;;;;;;;;;;30.24;31.48;99197.56;4482464;32;33909;-75
2022/08/13 10:28:18;;;;;;;;;;;;;;;30.71;32.98;99195.34;4465396;32;34248;-75
2022/08/13 10:31:00;;;;;;;;;;;;;;;30.75;31.45;99190.47;4462416;32;33481;-75
2022/08/13 10:33:54;;;;;;;;;;;;;;;30.47;32.53;99188.03;4462644;32;31863;-75
2022/08/13 10:36:26;;;;;;;;;;;;;;;30.91;31.63;99195.09;4473250;32;33859;-75
2022/08/13 10:39:02;;;;;;;;;;;;;;;30.91;31.05;99187.91;4473540;32;33607;-76
2022/08/13 10:41:33;;;;;;;;;;;;;;;31.10;32.59;99189.44;4473468;32;33965;-77
2022/08/13 10:44:13;;;;;;;;;;;;;;;30.92;30.18;99184.19;4470573;32;32602;-77
2022/08/13 10:46:52;;;;;;;;;;;;;;;31.08;30.10;99185.25;4468977;32;33697;-77
2022/08/13 10:49:22;;;;;;;;;;;;;;;31.11;29.86;99185.75;4468030;32;34298;-78
2022/08/13 10:51:51;;;;;;;;;;;;;;;30.66;31.12;99180.72;4466063;32;33288;-78
2022/08/13 10:54:33;;;;;;;;;;;;;;;30.75;30.81;99185.13;4467514;32;33404;-77
2022/08/13 10:57:04;;;;;;;;;;;;;;;30.45;31.04;99183.84;4477448;32;33596;-77
2022/08/13 10:59:34;;;;;;;;;;;;;;;30.10;32.17;99183.78;4467520;32;33878;-77
2022/08/13 11:02:06;;;;;;;;;;;;;;;30.34;31.22;99183.09;4470314;32;34860;-77
2022/08/13 11:04:37;;;;;;;;;;;;;;;30.16;31.74;99174.28;4468705;32;33140;-78
2022/08/13 11:07:20;;;;;;;;;;;;;;;30.35;30.99;99173.25;4462706;32;34168;-78
2022/08/13 11:09:49;;;;;;;;;;;;;;;30.48;31.02;99179.00;4465435;32;34439;-77
2022/08/13 11:12:18;;;;;;;;;;;;;;;30.71;30.73;99183.75;4481380;32;34010;-78
2022/08/13 11:14:53;;;;;;;;;;;;;;;30.63;31.31;99172.03;4478612;32;33308;-77
2022/08/13 11:17:22;;;;;;;;;;;;;;;30.81;30.78;99163.06;4478657;32;33856;-77
2022/08/13 11:20:19;;;;;;;;;;;;;;;31.13;30.46;99166.84;4468966;32;33773;-77
2022/08/13 11:22:54;;;;;;;;;;;;;;;30.86;30.64;99171.47;4477457;32;34219;-77
2022/08/13 11:25:22;;;;;;;;;;;;;;;30.97;29.75;99167.63;4479125;32;32719;-78
2022/08/13 11:28:11;;;;;;;;;;;;;;;30.77;29.86;99154.50;4480698;32;33516;-79
2022/08/13 11:30:49;;;;;;;;;;;;;;;31.36;29.12;99154.44;4462225;32;34011;-80
2022/08/13 11:33:18;;;;;;;;;;;;;;;31.46;28.93;99162.41;4475273;32;34191;-79
2022/08/13 11:35:48;;;;;;;;;;;;;;;31.63;29.60;99152.47;4470314;32;33238;-78
2022/08/13 11:38:18;;;;;;;;;;;;;;;31.91;28.51;99160.16;4477549;32;34079;-78
2022/08/13 11:40:48;;;;;;;;;;;;;;;31.65;28.58;99153.13;4477737;32;33936;-78
2022/08/13 11:43:20;;;;;;;;;;;;;;;31.71;28.95;99162.37;4474862;32;33774;-78
2022/08/13 11:45:49;;;;;;;;;;;;;;;31.67;28.33;99154.66;4464859;32;32857;-78
2022/08/13 11:48:18;;;;;;;;;;;;;;;31.71;27.69;99149.78;4463406;32;33557;-78
2022/08/13 11:51:05;;;;;;;;;;;;;;;32.04;27.35;99153.31;4464019;32;34197;-79
2022/08/13 11:53:34;;;;;;;;;;;;;;;31.83;27.94;99147.59;4477995;32;33957;-77
2022/08/13 11:56:22;;;;;;;;;;;;;;;31.68;28.20;99136.72;4474185;32;33599;-78
2022/08/13 11:58:51;;;;;;;;;;;;;;;31.81;28.76;99139.72;4482902;32;33688;-77
2022/08/13 12:01:25;;;;;;;;;;;;;;;32.14;28.51;99139.69;4472828;32;34657;-77
2022/08/13 12:04:12;;;;;;;;;;;;;;;32.39;27.44;99150.34;4461822;32;34715;-77
2022/08/13 12:06:46;;;;;;;;;;;;;;;31.81;27.29;99144.25;4462345;32;32707;-78
2022/08/13 12:09:19;;;;;;;;;;;;;;;31.52;28.12;99147.47;4462907;32;33972;-79
2022/08/13 12:12:07;;;;;;;;;;;;;;;31.49;27.88;99158.53;4469638;32;34964;-78
2022/08/13 12:14:50;;;;;;;;;;;;;;;31.42;27.59;99139.59;4476181;32;34882;-78
2022/08/13 12:17:18;;;;;;;;;;;;;;;31.35;27.58;99146.59;4481771;32;34055;-79
2022/08/13 12:20:08;;;;;;;;;;;;;;;31.61;27.94;99133.88;4482753;32;34251;-78
2022/08/13 12:22:50;;;;;;;;;;;;;;;31.67;26.86;99133.19;4477989;32;33594;-78
2022/08/13 12:25:20;;;;;;;;;;;;;;;31.94;27.37;99128.44;4471311;32;33926;-78
2022/08/13 12:28:16;;;;;;;;;;;;;;;32.06;27.16;99131.63;4468370;32;34037;-78
2022/08/13 12:30:51;;;;;;;;;;;;;;;32.11;27.24;99121.22;4468976;32;32813;-78
2022/08/13 12:33:19;;;;;;;;;;;;;;;32.41;26.49;99121.47;4468149;32;33700;-79
2022/08/13 12:35:50;;;;;;;;;;;;;;;31.97;26.50;99117.44;4477495;32;32928;-78
2022/08/13 12:38:26;;;;;;;;;;;;;;;31.68;28.01;99117.97;4476795;32;33505;-78
2022/08/13 12:40:58;;;;;;;;;;;;;;;31.82;26.90;99114.59;4467714;32;34068;-78
2022/08/13 12:43:44;;;;;;;;;;;;;;;32.13;27.23;99103.09;4466940;32;34342;-78
2022/08/13 12:46:33;;;;;;;;;;;;;;;32.21;27.01;99107.59;4467847;32;33940;-79
2022/08/13 12:49:03;;;;;;;;;;;;;;;32.28;27.06;99105.91;4476603;32;33802;-79
2022/08/13 12:54:44;;;;;;;;;;;;;;;31.84;26.29;99104.50;4420343;27;20376;-78
2022/08/13 12:57:33;;;;;;;;;;;;;;;31.55;27.04;99102.37;4349700;32;33889;-76
2022/08/13 13:00:21;;;;;;;;;;;;;;;31.68;26.98;99104.56;4348545;32;33565;-77
2022/08/13 13:02:59;;;;;;;;;;;;;;;31.96;26.04;99098.81;4349139;32;34029;-77
2022/08/13 13:05:30;;;;;;;;;;;;;;;32.38;26.33;99098.50;4352369;32;35090;-76
2022/08/13 13:08:20;;;;;;;;;;;;;;;32.41;26.02;99092.78;4359343;32;34795;-77
2022/08/13 13:11:03;;;;;;;;;;;;;;;31.97;26.91;99095.09;4353401;32;32583;-76
2022/08/13 13:13:41;;;;;;;;;;;;;;;32.04;25.64;99088.91;4352488;32;34497;-76
2022/08/13 13:16:25;;;;;;;;;;;;;;;31.60;26.19;99085.78;4351797;32;34909;-78
2022/08/13 13:19:04;;;;;;;;;;;;;;;31.00;26.35;99074.41;4352023;32;34030;-78
2022/08/13 13:21:44;;;;;;;;;;;;;;;31.84;25.13;99069.63;4351519;32;33392;-77
2022/08/13 13:24:14;;;;;;;;;;;;;;;31.80;25.71;99072.81;4358657;32;34053;-77
2022/08/13 13:26:52;;;;;;;;;;;;;;;32.02;25.22;99076.66;4354597;32;34605;-77
2022/08/13 13:29:32;;;;;;;;;;;;;;;31.89;25.08;99064.63;4353288;32;34830;-77
2022/08/13 13:32:05;;;;;;;;;;;;;;;31.58;25.73;99072.56;4354677;32;33743;-76
2022/08/13 13:34:55;;;;;;;;;;;;;;;31.55;25.51;99080.94;4340805;33;34653;-76
2022/08/13 13:37:26;;;;;;;;;;;;;;;31.44;25.79;99068.72;4346514;33;34890;-77
2022/08/13 13:40:16;;;;;;;;;;;;;;;31.81;25.08;99061.09;4355949;32;34470;-76
2022/08/13 13:42:47;;;;;;;;;;;;;;;31.51;25.26;99058.16;4355056;32;33262;-78
2022/08/13 13:45:36;;;;;;;;;;;;;;;31.40;25.38;99053.16;4354539;32;34221;-77
2022/08/13 13:48:23;;;;;;;;;;;;;;;31.70;24.61;99051.56;4355780;32;34807;-76
2022/08/13 13:50:52;;;;;;;;;;;;;;;31.33;25.03;99055.63;4351257;32;34661;-76
2022/08/13 13:53:21;;;;;;;;;;;;;;;31.30;25.23;99047.94;4347877;32;34330;-76
2022/08/13 13:56:11;;;;;;;;;;;;;;;31.17;25.16;99055.63;4330370;33;34973;-77
2022/08/13 13:58:41;;;;;;;;;;;;;;;31.37;25.41;99058.81;4326150;33;34110;-76
2022/08/13 14:01:24;;;;;;;;;;;;;;;31.33;25.31;99050.25;4334252;33;33925;-76
2022/08/13 14:03:53;;;;;;;;;;;;;;;31.28;25.76;99052.62;4340794;33;34362;-78